Pagrindinis puslapis
METAR-TAF:

METAR-TAF

Oro uostai :

Visbis, Gotlandas, Švedija

platuma: 57-40N, ilguma: 018-21E, Aukštis: 51 m

Dabartinis oras

Ataskaita buvo paskelbta 22 minutes, ne 03:20 UTC
Vėjas 7 kt iš Pietryčių
Temperatūra 21°C
Drėgmė 78%
Slėgis 1007 hPa
Matomumas 10 km arba daugiau

METAR: ESSV 220320Z AUTO 14007KT 9999 NCD 21/17 Q1007

Laikas: 05:42 (03:42 UTC)

Prognozė

Ataskaita buvo paskelbta 1 valandą ir 12 minutes, ne 02:30 UTC
Prognozė galioja nuo 22 metu 03 UTC su 22 metu 12 UTC
Vėjas 10 kt iš Pietryčių
Matomumas 10 km arba daugiau
nėra debesų žemiau 1500 m ir nėra kamuolinių lietaus debesų
Tapsmas
nuo 22 metu 07 UTC su 22 metu 09 UTC
Vėjas 8 kt iš Šiaurės Vakarų
Tikimybė 40%
nuo 22 metu 07 UTC su 22 metu 12 UTC
Išsisklaidę debesys ne aukštis 6000 ft, Liūtiniai kamuoliniai debesys.
perkūnija, lietus

TAF: ESSV 220230Z 2203/2212 14010KT CAVOK BECMG 2207/2209 32008KT PROB40 2207/2212 -TSRA SCT060CB

Orai ataskaitas ir orų prognozės (METAR, TAF).

turimą stotys yra geltonos ir raudonos taškus žemėlapyje.

Perkelti pele per norėdami pamatyti stoties vardą.

Tada spustelėkite, norėdami matyti oro stebėjimo ir prognozės.

Norėdami pakeisti žemėlapį: spustelėkite ant žalios mygtukų su juodo kryžiaus žemyn,; žalią mygtuką su brūkšneliu, jei norite nutolinti; arba žalių rodyklių gretimoms žemėlapius.


METAR-TAF: